Semora, North Carolina
Current Conditions -  °F | °C
As of 2:53 PM on Thursday 29 Jan 2015 (Local Time) from KDAN Reporting Station
Light Rain Light Rain  
Wind Chill: 39°   Ceiling: 7000
Heat Index: 43°   Visibility: 10mi
Dew Point: 26°   Wind: 7mph
Humidity: 51%   Direction: NA
Pressure: 30.13"   Gusts: NA
Location:  36.5°N, 79.15°W
Report Text: KDAN 291953Z AUTO VRB06KT 10SM -RA BKN070 OVC090 06/M03 A3013 RMK AO2 RAB39 SLP202 P0000 T00611033
Loading
Personal Weather Stations






























Interactive Weather Map New forecast layout! Learn more

10-Day Weather Forecast

Advertisements
Track Severe Weather on mobile